Lifter — V2DD4 — position and weather

sailwx.info

Track history (hours):
 
Tides and Currents Weather Stations Pressure Air Temp Water Temp Dewpoint Dewpoint Depression Visibility Wind Speed Wind Dir Waves Ship Positions

Lifter

Last reported at 2017-Mar-25 08:07 UTC. Time now 2017-Mar-25 19:53 UTC.
Position N 39°32' W 009°43'.

Length 119 m; draft 7.3 m.

Type: Cargo ship. MMSI: 305175000.

Date/timePositionNaut miles runAvg speedWind from/ knotsBaromVisibWave heightAir tempDewpointWater temp
2017-Mar-25 08:07N 39°32' W 009°43'610.2
2017-Mar-25 07:33N 39°26' W 009°45'10 9.8
2017-Mar-25 06:33N 39°17' W 009°48'1010.2
2017-Mar-25 05:33N 39°07' W 009°50'1010.0
2017-Mar-25 04:34N 38°57' W 009°51'10 9.7
2017-Mar-25 03:33N 38°47' W 009°51'10 9.5
2017-Mar-25 02:33N 38°38' W 009°49'10 9.6
2017-Mar-25 01:34N 38°28' W 009°46'10 9.6
2017-Mar-25 00:33N 38°19' W 009°43'9 9.3
2017-Mar-24 23:34N 38°10' W 009°40'9 9.4
2017-Mar-24 22:33N 38°01' W 009°37'10 9.3
2017-Mar-24 21:26N 37°51' W 009°35'910.0
2017-Mar-24 20:34N 37°42' W 009°32'216 9.3
2017-Mar-23 21:21N 35°58' W 005°36'8 9.7
2017-Mar-23 20:34N 36°01' W 005°27'10 9.8
2017-Mar-23 19:34N 36°03' W 005°16'1405140.5
2017-Mar-23 09:33N 55°05' E 014°15'  
2017-Mar-19 18:33N 37°28' E 011°10'5811.4
2017-Mar-19 13:27N 37°20' E 012°23'6410.8
2017-Mar-19 07:33N 37°02' E 013°40'1211.6
2017-Mar-19 06:33N 36°57' E 013°53'1211.9
2017-Mar-19 05:33N 36°51' E 014°05'1111.1
2017-Mar-19 04:33N 36°46' E 014°18'1110.9
2017-Mar-19 03:33N 36°42' E 014°31'1010.4
2017-Mar-19 02:33N 36°38' E 014°43'1410.8
2017-Mar-19 01:17N 36°33' E 014°58'910.9
2017-Mar-19 00:28N 36°31' E 015°09'1010.7
2017-Mar-18 23:33N 36°30' E 015°21'1110.7
2017-Mar-18 22:32N 36°29' E 015°35'  
2017-Mar-16 01:30N 40°45' E 029°01'1112.1
2017-Mar-16 00:33N 40°45' E 029°16'1111.2
2017-Mar-15 23:33N 40°45' E 029°31'  
Track history (hours):
 
Tides and Currents Weather Stations Pressure Air Temp Water Temp Dewpoint Dewpoint Depression Visibility Wind Speed Wind Dir Waves Ship Positions

Lifter

Last reported at 2017-Mar-25 08:07 UTC. Time now 2017-Mar-25 19:53 UTC.
Position N 39°32' W 009°43'.

Length 119 m; draft 7.3 m.

Type: Cargo ship. MMSI: 305175000.

Date/timePositionNaut miles runAvg speedWind from/ knotsBaromVisibWave heightAir tempDewpointWater temp
2017-Mar-25 08:07N 39°32' W 009°43'610.2
2017-Mar-25 07:33N 39°26' W 009°45'10 9.8
2017-Mar-25 06:33N 39°17' W 009°48'1010.2
2017-Mar-25 05:33N 39°07' W 009°50'1010.0
2017-Mar-25 04:34N 38°57' W 009°51'10 9.7
2017-Mar-25 03:33N 38°47' W 009°51'10 9.5
2017-Mar-25 02:33N 38°38' W 009°49'10 9.6
2017-Mar-25 01:34N 38°28' W 009°46'10 9.6
2017-Mar-25 00:33N 38°19' W 009°43'9 9.3
2017-Mar-24 23:34N 38°10' W 009°40'9 9.4
2017-Mar-24 22:33N 38°01' W 009°37'10 9.3
2017-Mar-24 21:26N 37°51' W 009°35'910.0
2017-Mar-24 20:34N 37°42' W 009°32'216 9.3
2017-Mar-23 21:21N 35°58' W 005°36'8 9.7
2017-Mar-23 20:34N 36°01' W 005°27'10 9.8
2017-Mar-23 19:34N 36°03' W 005°16'1405140.5
2017-Mar-23 09:33N 55°05' E 014°15'  
2017-Mar-19 18:33N 37°28' E 011°10'5811.4
2017-Mar-19 13:27N 37°20' E 012°23'6410.8
2017-Mar-19 07:33N 37°02' E 013°40'1211.6
2017-Mar-19 06:33N 36°57' E 013°53'1211.9
2017-Mar-19 05:33N 36°51' E 014°05'1111.1
2017-Mar-19 04:33N 36°46' E 014°18'1110.9
2017-Mar-19 03:33N 36°42' E 014°31'1010.4
2017-Mar-19 02:33N 36°38' E 014°43'1410.8
2017-Mar-19 01:17N 36°33' E 014°58'910.9
2017-Mar-19 00:28N 36°31' E 015°09'1010.7
2017-Mar-18 23:33N 36°30' E 015°21'1110.7
2017-Mar-18 22:32N 36°29' E 015°35'  
2017-Mar-16 01:30N 40°45' E 029°01'1112.1
2017-Mar-16 00:33N 40°45' E 029°16'1111.2
2017-Mar-15 23:33N 40°45' E 029°31'  

Dump ship's entire track history